createdAt,value
2023-01-26T00:04:43.037Z,96.94
2023-01-26T00:16:43.493Z,96.65
2023-01-26T00:28:43.954Z,96.87
2023-01-26T00:40:44.410Z,96.79
2023-01-26T00:52:44.830Z,97.69
2023-01-26T01:04:45.290Z,97.59
2023-01-26T01:16:45.739Z,98.35
2023-01-26T01:28:46.264Z,98.49
2023-01-26T01:40:46.673Z,98.73
2023-01-26T01:52:47.116Z,98.91
2023-01-26T02:04:47.587Z,98.54
2023-01-26T02:16:48.046Z,96.53
2023-01-26T02:28:48.489Z,97.33
2023-01-26T02:40:48.953Z,96.24
2023-01-26T02:52:49.353Z,99.11
2023-01-26T03:04:49.799Z,99.20
2023-01-26T03:16:50.266Z,99.42
2023-01-26T03:28:50.733Z,98.37
2023-01-26T03:40:51.165Z,97.52
2023-01-26T03:52:51.656Z,98.14
2023-01-26T04:04:52.104Z,96.69
2023-01-26T04:16:52.578Z,96.07
2023-01-26T04:28:52.956Z,97.16
2023-01-26T04:40:53.442Z,97.02
2023-01-26T04:52:53.904Z,97.22
2023-01-26T05:04:54.329Z,97.26
2023-01-26T05:16:54.759Z,97.64
2023-01-26T05:28:55.239Z,98.30
2023-01-26T05:40:55.714Z,99.34
2023-01-26T05:52:56.178Z,98.57
2023-01-26T06:04:56.611Z,98.28
2023-01-26T06:16:57.053Z,97.40
2023-01-26T06:28:57.446Z,98.46
2023-01-26T06:40:57.933Z,97.19
2023-01-26T06:52:58.360Z,96.49
2023-01-26T07:04:58.803Z,98.62
2023-01-26T07:16:59.294Z,98.19
2023-01-26T07:28:59.745Z,98.58
2023-01-26T07:41:00.330Z,97.57
2023-01-26T07:53:00.607Z,95.62
2023-01-26T08:05:01.053Z,95.12
2023-01-26T08:17:01.567Z,97.09
2023-01-26T08:29:02.000Z,95.85
2023-01-26T08:41:02.435Z,95.24
2023-01-26T08:53:02.910Z,94.58
2023-01-26T09:05:03.382Z,94.64
2023-01-26T09:17:03.779Z,93.29
2023-01-26T09:29:04.248Z,94.98
2023-01-26T09:41:04.739Z,92.70
2023-01-26T09:53:05.177Z,91.90
2023-01-26T10:05:05.611Z,90.72
2023-01-26T10:17:06.051Z,89.62
2023-01-26T10:29:06.503Z,90.49
2023-01-26T10:41:06.977Z,90.17
2023-01-26T10:53:07.413Z,89.09
2023-01-26T11:05:07.905Z,89.04
2023-01-26T11:17:08.292Z,89.30
2023-01-26T11:29:08.912Z,88.29
2023-01-26T11:41:09.207Z,88.88
2023-01-26T11:53:09.676Z,84.98
2023-01-26T12:05:10.624Z,86.02
2023-01-26T12:17:18.141Z,85.01
2023-01-26T12:29:11.035Z,89.72
2023-01-26T12:41:11.486Z,88.88
2023-01-26T12:53:11.928Z,88.92
2023-01-26T13:05:12.378Z,86.80
2023-01-26T13:17:12.846Z,89.88
2023-01-26T13:29:13.283Z,90.43
2023-01-26T13:41:13.729Z,90.73
2023-01-26T13:53:14.199Z,90.95
2023-01-26T14:05:14.626Z,90.58
2023-01-26T14:17:15.079Z,90.63
2023-01-26T14:29:15.569Z,89.62
2023-01-26T14:41:15.978Z,89.22
2023-01-26T14:53:16.429Z,90.62
2023-01-26T15:05:16.846Z,90.15
2023-01-26T15:17:17.324Z,90.71
2023-01-26T15:29:17.831Z,91.44
2023-01-26T15:41:18.248Z,90.68
2023-01-26T15:53:18.701Z,92.30
2023-01-26T16:05:19.168Z,90.88
2023-01-26T16:17:19.614Z,90.83
2023-01-26T16:29:20.080Z,93.21
2023-01-26T16:41:20.488Z,92.92
2023-01-26T16:53:20.959Z,94.38
2023-01-26T17:05:21.426Z,95.87
2023-01-26T17:17:21.840Z,98.35
2023-01-26T17:29:22.350Z,96.58
2023-01-26T17:41:22.787Z,96.82
2023-01-26T17:53:23.257Z,96.49
2023-01-26T18:05:23.683Z,96.34
2023-01-26T18:17:24.130Z,96.03
2023-01-26T18:29:24.571Z,95.91
2023-01-26T18:41:25.048Z,95.23
2023-01-26T18:53:25.463Z,95.96
2023-01-26T19:05:25.893Z,97.79
2023-01-26T19:17:26.396Z,96.93
2023-01-26T19:29:26.874Z,96.86
2023-01-26T19:41:27.314Z,96.61
2023-01-26T19:53:27.723Z,96.30
2023-01-26T20:05:28.215Z,96.38
2023-01-26T20:17:28.677Z,96.15
2023-01-26T20:29:29.071Z,96.43
2023-01-26T20:41:29.605Z,95.69
2023-01-26T20:53:30.065Z,95.90
2023-01-26T21:05:30.493Z,94.49
2023-01-26T21:17:30.942Z,94.94
2023-01-26T21:29:31.375Z,95.44
2023-01-26T21:41:31.863Z,95.14
2023-01-26T21:53:32.262Z,95.62
2023-01-26T22:05:32.763Z,94.74
2023-01-26T22:17:33.190Z,94.34
2023-01-26T22:29:33.628Z,95.38
2023-01-26T22:41:34.087Z,95.63
2023-01-26T22:53:34.523Z,96.02
